createdAt,value
2023-05-14T00:00:04.266Z,13.52
2023-05-14T00:02:31.084Z,14.24
2023-05-14T00:04:57.824Z,14.52
2023-05-14T00:07:30.827Z,14.01
2023-05-14T00:09:58.328Z,13.45
2023-05-14T00:12:26.487Z,14.00
2023-05-14T00:14:53.591Z,14.84
2023-05-14T00:17:20.274Z,14.74
2023-05-14T00:19:46.961Z,15.27
2023-05-14T00:22:13.604Z,14.67
2023-05-14T00:24:40.238Z,14.64
2023-05-14T00:27:07.362Z,13.84
2023-05-14T00:29:34.171Z,14.02
2023-05-14T00:32:01.000Z,13.82
2023-05-14T00:34:27.645Z,13.92
2023-05-14T00:36:54.379Z,13.24
2023-05-14T00:39:21.101Z,13.18
2023-05-14T00:41:47.743Z,12.76
2023-05-14T00:44:14.352Z,13.23
2023-05-14T00:46:41.043Z,12.91
2023-05-14T00:49:07.897Z,13.29
2023-05-14T00:51:34.757Z,13.00
2023-05-14T00:54:01.443Z,13.27
2023-05-14T00:56:28.167Z,13.20
2023-05-14T00:58:54.948Z,13.23
2023-05-14T01:01:21.833Z,13.62
2023-05-14T01:03:49.211Z,13.54
2023-05-14T01:06:15.956Z,13.78
2023-05-14T01:09:17.895Z,13.80
2023-05-14T01:11:55.979Z,13.91
2023-05-14T01:14:26.586Z,14.07
2023-05-14T01:16:56.948Z,13.82
2023-05-14T01:19:32.675Z,13.47
2023-05-14T01:21:59.317Z,13.25
2023-05-14T01:24:25.978Z,12.85
2023-05-14T01:26:53.492Z,13.00
2023-05-14T01:29:22.575Z,13.24
2023-05-14T01:31:50.593Z,13.28
2023-05-14T01:34:20.482Z,12.68
2023-05-14T01:36:47.437Z,13.17
2023-05-14T01:39:15.420Z,13.74
2023-05-14T01:41:42.839Z,14.06
2023-05-14T01:44:10.106Z,13.95
2023-05-14T01:46:37.044Z,14.02
2023-05-14T01:49:03.749Z,13.89
2023-05-14T01:51:31.008Z,13.81
2023-05-14T01:53:57.664Z,13.88
2023-05-14T01:56:25.845Z,13.64
2023-05-14T01:58:52.710Z,14.36
2023-05-14T02:01:19.425Z,14.16
2023-05-14T02:03:46.190Z,14.31
2023-05-14T02:06:12.889Z,14.49
2023-05-14T02:08:39.611Z,14.41
2023-05-14T02:11:06.233Z,14.26
2023-05-14T02:13:32.812Z,14.43
2023-05-14T02:15:59.493Z,14.08
2023-05-14T02:18:26.180Z,13.96
2023-05-14T02:20:52.944Z,14.21
2023-05-14T02:23:25.647Z,14.18
2023-05-14T02:25:57.934Z,13.90
2023-05-14T02:28:24.601Z,14.04
2023-05-14T02:30:51.245Z,14.22
2023-05-14T02:33:17.916Z,13.91
2023-05-14T02:35:44.843Z,13.79
2023-05-14T02:38:11.756Z,13.99
2023-05-14T02:40:38.429Z,14.75
2023-05-14T02:43:05.150Z,14.24
2023-05-14T02:45:31.798Z,13.94
2023-05-14T02:47:58.497Z,14.47
2023-05-14T02:50:25.394Z,13.73
2023-05-14T02:52:52.352Z,14.32
2023-05-14T02:55:19.008Z,14.15
2023-05-14T02:57:45.661Z,14.30
2023-05-14T03:00:12.548Z,14.15
2023-05-14T03:02:39.636Z,14.74
2023-05-14T03:05:06.723Z,14.20
2023-05-14T03:07:33.372Z,14.09
2023-05-14T03:10:00.788Z,13.18
2023-05-14T03:12:27.389Z,13.53
2023-05-14T03:14:54.065Z,13.52
2023-05-14T03:17:20.829Z,14.08
2023-05-14T03:19:47.523Z,13.75
2023-05-14T03:22:14.526Z,13.49
2023-05-14T03:24:41.201Z,13.28
2023-05-14T03:27:07.886Z,13.16
2023-05-14T03:29:34.561Z,13.67
2023-05-14T03:32:01.196Z,14.26
2023-05-14T03:34:27.912Z,13.82
2023-05-14T03:36:54.649Z,14.12
2023-05-14T03:39:21.419Z,13.85
2023-05-14T03:41:48.449Z,14.01
2023-05-14T03:44:15.022Z,14.26
2023-05-14T03:46:41.704Z,14.04
2023-05-14T03:49:09.078Z,14.05
2023-05-14T03:51:35.855Z,13.13
2023-05-14T03:54:03.413Z,12.89
2023-05-14T03:56:30.001Z,13.74
2023-05-14T03:58:56.658Z,12.81
2023-05-14T04:01:23.408Z,13.13
2023-05-14T04:03:50.276Z,13.47
2023-05-14T04:06:17.009Z,13.52
2023-05-14T04:08:43.739Z,12.69
2023-05-14T04:11:10.429Z,12.56
2023-05-14T04:13:37.071Z,13.19
2023-05-14T04:16:03.917Z,12.66
2023-05-14T04:18:31.063Z,13.09
2023-05-14T04:20:57.664Z,12.98
2023-05-14T04:23:24.302Z,13.55
2023-05-14T04:25:50.915Z,12.85
2023-05-14T04:28:17.611Z,13.53
2023-05-14T04:30:44.219Z,12.72
2023-05-14T04:33:11.180Z,13.58
2023-05-14T04:35:38.032Z,12.92
2023-05-14T04:38:04.660Z,12.61
2023-05-14T04:40:32.111Z,12.69
2023-05-14T04:42:58.739Z,12.98
2023-05-14T04:45:26.697Z,13.32
2023-05-14T04:47:53.410Z,13.24
2023-05-14T04:50:20.098Z,13.03
2023-05-14T04:52:46.826Z,12.70
2023-05-14T04:55:13.535Z,12.71
2023-05-14T04:57:40.159Z,12.53
2023-05-14T05:00:07.566Z,13.02
2023-05-14T05:02:35.032Z,12.12
2023-05-14T05:05:01.863Z,12.49
2023-05-14T05:07:28.520Z,12.99
2023-05-14T05:09:55.174Z,12.80
2023-05-14T05:12:21.823Z,12.43
2023-05-14T05:14:48.510Z,12.61
2023-05-14T05:17:15.138Z,12.53
2023-05-14T05:19:44.163Z,12.60
2023-05-14T05:22:11.450Z,12.46
2023-05-14T05:24:38.086Z,12.47
2023-05-14T05:27:05.663Z,13.01
2023-05-14T05:29:32.458Z,13.19
2023-05-14T05:31:59.294Z,12.38
2023-05-14T05:34:25.894Z,12.64
2023-05-14T05:36:52.523Z,12.87
2023-05-14T05:39:19.156Z,13.05
2023-05-14T05:41:45.887Z,12.68
2023-05-14T05:44:12.569Z,13.16
2023-05-14T05:46:39.378Z,13.17
2023-05-14T05:49:06.261Z,13.08
2023-05-14T05:51:33.426Z,13.19
2023-05-14T05:54:00.122Z,12.90
2023-05-14T05:56:26.824Z,12.63
2023-05-14T05:58:53.460Z,12.48
2023-05-14T06:01:20.232Z,12.59
2023-05-14T06:03:48.504Z,12.99
2023-05-14T06:06:15.808Z,13.69
2023-05-14T06:08:42.465Z,12.81
2023-05-14T06:11:09.196Z,13.32
2023-05-14T06:13:36.175Z,12.90
2023-05-14T06:16:02.819Z,12.78
2023-05-14T06:18:29.582Z,13.01
2023-05-14T06:20:57.802Z,12.70
2023-05-14T06:23:24.535Z,12.58
2023-05-14T06:25:51.390Z,12.31
2023-05-14T06:28:18.235Z,12.60
2023-05-14T06:30:44.964Z,13.05
2023-05-14T06:33:13.579Z,13.02
2023-05-14T06:35:40.297Z,12.49
2023-05-14T06:38:06.992Z,12.29
2023-05-14T06:40:33.648Z,12.87
2023-05-14T06:43:00.277Z,12.46
2023-05-14T06:45:26.905Z,12.65
2023-05-14T06:47:53.692Z,12.56
2023-05-14T06:50:20.523Z,12.59
2023-05-14T06:52:47.173Z,12.30
2023-05-14T06:55:13.843Z,12.26
2023-05-14T06:57:40.943Z,12.42
2023-05-14T07:00:09.285Z,12.66
2023-05-14T07:02:36.137Z,12.79
2023-05-14T07:05:03.229Z,12.99
2023-05-14T07:07:29.908Z,12.43
2023-05-14T07:09:56.567Z,12.87
2023-05-14T07:12:23.182Z,13.02
2023-05-14T07:14:50.162Z,12.94
2023-05-14T07:17:16.945Z,12.47
2023-05-14T07:19:43.711Z,13.00
2023-05-14T07:22:10.429Z,12.83
2023-05-14T07:24:37.216Z,12.67
2023-05-14T07:27:03.974Z,12.27
2023-05-14T07:29:30.994Z,12.10
2023-05-14T07:31:57.613Z,12.58
2023-05-14T07:34:24.308Z,12.36
2023-05-14T07:36:51.011Z,12.33
2023-05-14T07:39:17.687Z,12.81
2023-05-14T07:41:44.538Z,12.70
2023-05-14T07:44:11.180Z,12.31
2023-05-14T07:46:37.786Z,12.35
2023-05-14T07:49:04.513Z,12.33
2023-05-14T07:51:31.883Z,12.82
2023-05-14T07:53:58.653Z,12.03
2023-05-14T07:56:25.810Z,12.16
2023-05-14T07:58:52.461Z,12.16
2023-05-14T08:01:19.097Z,12.02
2023-05-14T08:03:46.047Z,12.33
2023-05-14T08:06:12.761Z,12.53
2023-05-14T08:08:39.554Z,12.33
2023-05-14T08:11:06.583Z,12.78
2023-05-14T08:13:33.357Z,12.26
2023-05-14T08:16:00.487Z,12.26
2023-05-14T08:18:27.235Z,12.30
2023-05-14T08:20:53.812Z,12.22
2023-05-14T08:23:20.754Z,12.16
2023-05-14T08:25:47.543Z,12.47
2023-05-14T08:28:14.321Z,12.41
2023-05-14T08:30:41.141Z,12.44
2023-05-14T08:33:07.985Z,12.26
2023-05-14T08:35:34.713Z,12.22
2023-05-14T08:38:01.500Z,12.31
2023-05-14T08:40:28.487Z,12.55
2023-05-14T08:42:57.146Z,12.20
2023-05-14T08:45:28.119Z,12.38
2023-05-14T08:47:56.043Z,12.43
2023-05-14T08:50:23.792Z,12.51
2023-05-14T08:52:50.979Z,12.45
2023-05-14T08:55:17.962Z,12.70
2023-05-14T08:57:44.755Z,12.47
2023-05-14T09:00:12.116Z,12.81
2023-05-14T09:02:39.973Z,12.20
2023-05-14T09:05:09.952Z,12.43
2023-05-14T09:07:36.886Z,12.20
2023-05-14T09:10:04.198Z,12.38
2023-05-14T09:12:31.400Z,12.19
2023-05-14T09:14:58.085Z,12.24
2023-05-14T09:17:26.018Z,12.41
2023-05-14T09:19:53.342Z,12.88
2023-05-14T09:22:20.295Z,12.88
2023-05-14T09:25:01.571Z,12.71
2023-05-14T09:27:29.796Z,12.72
2023-05-14T09:29:56.493Z,12.55
2023-05-14T09:32:24.768Z,12.21
2023-05-14T09:34:52.976Z,12.64
2023-05-14T09:37:19.629Z,12.46
2023-05-14T09:40:48.300Z,12.76
2023-05-14T09:43:15.205Z,12.58
2023-05-14T09:45:41.920Z,12.72
2023-05-14T09:48:08.653Z,13.08
2023-05-14T09:50:41.870Z,13.02
2023-05-14T09:53:08.508Z,12.28
2023-05-14T09:55:36.745Z,12.89
2023-05-14T09:58:04.020Z,12.39
2023-05-14T10:00:33.948Z,12.37
2023-05-14T10:03:04.867Z,12.68
2023-05-14T10:05:33.340Z,12.66
2023-05-14T10:08:02.553Z,12.04
2023-05-14T10:10:30.541Z,12.33
2023-05-14T10:13:06.960Z,12.53
2023-05-14T10:16:06.088Z,12.52
2023-05-14T10:18:35.768Z,12.31
2023-05-14T10:21:06.402Z,12.07
2023-05-14T10:23:33.910Z,12.12
2023-05-14T10:26:01.000Z,12.63
2023-05-14T10:28:28.136Z,12.54
2023-05-14T10:30:54.958Z,12.35
2023-05-14T10:33:21.719Z,12.40
2023-05-14T10:36:07.405Z,12.50
2023-05-14T10:38:35.153Z,12.40
2023-05-14T10:41:03.518Z,12.35
2023-05-14T10:43:31.294Z,12.39
2023-05-14T10:45:58.730Z,12.27
2023-05-14T10:48:26.050Z,12.55
2023-05-14T10:50:53.274Z,12.67
2023-05-14T10:53:20.311Z,12.36
2023-05-14T10:55:47.427Z,12.56
2023-05-14T10:58:15.185Z,12.47
2023-05-14T11:00:42.122Z,12.35
2023-05-14T11:03:08.923Z,12.44
2023-05-14T11:05:37.436Z,12.74
2023-05-14T11:08:06.970Z,12.92
2023-05-14T11:10:34.117Z,13.09
2023-05-14T11:13:00.817Z,12.58
2023-05-14T11:15:28.524Z,13.08
2023-05-14T11:17:55.357Z,13.00
2023-05-14T11:20:22.355Z,12.89
2023-05-14T11:22:51.830Z,12.72
2023-05-14T11:25:19.098Z,12.94
2023-05-14T11:27:46.959Z,12.63
2023-05-14T11:30:14.630Z,12.48
2023-05-14T11:32:41.853Z,12.70
2023-05-14T11:35:08.845Z,12.67
2023-05-14T11:37:35.796Z,12.20
2023-05-14T11:40:02.722Z,12.60
2023-05-14T11:42:29.325Z,12.27
2023-05-14T11:44:56.039Z,12.62
2023-05-14T11:47:22.868Z,12.26
2023-05-14T11:49:49.945Z,12.58
2023-05-14T11:52:19.536Z,12.13
2023-05-14T11:54:46.679Z,12.75
2023-05-14T11:57:15.767Z,12.53
2023-05-14T11:59:42.979Z,12.70
2023-05-14T12:02:13.367Z,12.47
2023-05-14T12:04:40.529Z,12.47
2023-05-14T12:07:11.089Z,12.30
2023-05-14T12:09:41.514Z,12.49
2023-05-14T12:12:11.240Z,12.71
2023-05-14T12:14:39.053Z,12.74
2023-05-14T12:17:16.105Z,12.72
2023-05-14T12:19:43.736Z,12.78
2023-05-14T12:22:10.900Z,12.79
2023-05-14T12:24:37.781Z,12.66
2023-05-14T12:27:04.475Z,12.83
2023-05-14T12:29:31.288Z,12.75
2023-05-14T12:32:04.790Z,12.74
2023-05-14T12:34:31.471Z,12.79
2023-05-14T12:36:58.237Z,12.54
2023-05-14T12:39:25.231Z,12.53
2023-05-14T12:41:51.926Z,12.85
2023-05-14T12:44:18.968Z,12.91
2023-05-14T12:46:46.252Z,12.85
2023-05-14T12:49:12.943Z,12.76
2023-05-14T12:51:39.615Z,12.84
2023-05-14T12:54:06.252Z,12.91
2023-05-14T12:56:32.992Z,13.00
2023-05-14T12:58:59.788Z,13.11
2023-05-14T13:01:26.407Z,13.14
2023-05-14T13:03:53.247Z,12.80
2023-05-14T13:06:19.925Z,12.94
2023-05-14T13:08:46.697Z,12.89
2023-05-14T13:11:13.523Z,13.29
2023-05-14T13:13:40.300Z,13.16
2023-05-14T13:16:07.216Z,13.21
2023-05-14T13:18:34.066Z,12.86
2023-05-14T13:21:00.987Z,12.68
2023-05-14T13:23:27.706Z,12.96
2023-05-14T13:25:54.485Z,12.82
2023-05-14T13:28:21.426Z,12.86
2023-05-14T13:31:03.886Z,12.85
2023-05-14T13:33:30.877Z,13.30
2023-05-14T13:35:57.590Z,13.19
2023-05-14T13:38:24.215Z,13.20
2023-05-14T13:40:50.808Z,13.28
2023-05-14T13:43:17.454Z,13.19
2023-05-14T13:45:44.048Z,12.93
2023-05-14T13:48:10.814Z,13.34
2023-05-14T13:50:37.535Z,13.60
2023-05-14T13:53:04.286Z,13.55
2023-05-14T13:55:30.897Z,13.34
2023-05-14T13:57:57.592Z,13.18
2023-05-14T14:00:24.528Z,13.50
2023-05-14T14:02:51.265Z,13.53
2023-05-14T14:05:18.200Z,13.31
2023-05-14T14:07:44.906Z,13.51
2023-05-14T14:10:12.601Z,13.76
2023-05-14T14:12:39.220Z,13.58
2023-05-14T14:15:06.217Z,13.80
2023-05-14T14:17:34.888Z,13.73
2023-05-14T14:20:01.573Z,13.69
2023-05-14T14:22:29.297Z,13.92
2023-05-14T14:24:56.173Z,14.02
2023-05-14T14:27:22.862Z,13.38
2023-05-14T14:29:49.616Z,13.43
2023-05-14T14:32:16.297Z,13.44
2023-05-14T14:34:42.939Z,13.36
2023-05-14T14:37:09.669Z,13.12
2023-05-14T14:39:36.385Z,13.32
2023-05-14T14:42:03.053Z,13.12
2023-05-14T14:44:29.719Z,13.43
2023-05-14T14:46:56.337Z,13.52
2023-05-14T14:49:23.774Z,13.22
2023-05-14T14:51:50.493Z,13.38
2023-05-14T14:54:17.221Z,13.37
2023-05-14T14:56:45.991Z,13.34
2023-05-14T14:59:12.605Z,13.15
2023-05-14T15:01:39.442Z,12.91
2023-05-14T15:04:06.166Z,13.13
2023-05-14T15:06:32.835Z,12.78
2023-05-14T15:08:59.771Z,12.79
2023-05-14T15:11:26.583Z,12.94
2023-05-14T15:13:53.246Z,13.31
2023-05-14T15:16:20.015Z,13.66
2023-05-14T15:18:46.796Z,12.84
2023-05-14T15:21:13.451Z,13.09
2023-05-14T15:23:40.108Z,13.32
2023-05-14T15:26:06.785Z,13.15
2023-05-14T15:28:33.537Z,13.53
2023-05-14T15:31:00.332Z,13.43
2023-05-14T15:33:26.929Z,13.29
2023-05-14T15:35:53.580Z,12.98
2023-05-14T15:38:20.242Z,13.74
2023-05-14T15:40:46.988Z,13.42
2023-05-14T15:43:13.699Z,13.27
2023-05-14T15:45:40.413Z,12.96
2023-05-14T15:48:07.119Z,13.66
2023-05-14T15:50:33.874Z,13.65
2023-05-14T15:53:00.581Z,14.09
2023-05-14T15:55:27.257Z,13.93
2023-05-14T15:57:53.960Z,13.45
2023-05-14T16:00:21.168Z,13.23
2023-05-14T16:02:48.119Z,13.37
2023-05-14T16:05:15.458Z,13.80
2023-05-14T16:07:42.983Z,13.35
2023-05-14T16:10:09.882Z,13.09
2023-05-14T16:12:36.558Z,12.82
2023-05-14T16:15:03.305Z,13.48
2023-05-14T16:17:31.957Z,13.21
2023-05-14T16:20:00.171Z,13.63
2023-05-14T16:22:27.583Z,12.98
2023-05-14T16:24:54.192Z,13.39
2023-05-14T16:27:21.155Z,13.28
2023-05-14T16:29:47.982Z,13.26
2023-05-14T16:32:14.773Z,12.94
2023-05-14T16:34:41.580Z,13.02
2023-05-14T16:37:08.727Z,13.66
2023-05-14T16:39:36.280Z,13.63
2023-05-14T16:42:04.466Z,13.28
2023-05-14T16:44:31.607Z,13.39
2023-05-14T16:46:58.255Z,13.44
2023-05-14T16:49:25.064Z,13.97
2023-05-14T16:51:51.752Z,14.15
2023-05-14T16:54:18.403Z,13.14
2023-05-14T16:56:48.377Z,13.13
2023-05-14T16:59:15.980Z,13.36
2023-05-14T17:01:43.013Z,13.38
2023-05-14T17:04:09.824Z,14.00
2023-05-14T17:06:36.774Z,13.93
2023-05-14T17:09:03.909Z,14.10
2023-05-14T17:11:30.676Z,13.32
2023-05-14T17:13:57.425Z,13.63
2023-05-14T17:16:25.470Z,13.23
2023-05-14T17:18:52.237Z,13.44
2023-05-14T17:21:18.862Z,13.63
2023-05-14T17:23:45.589Z,14.19
2023-05-14T17:26:12.352Z,13.73
2023-05-14T17:28:39.296Z,14.33
2023-05-14T17:31:06.488Z,13.96
2023-05-14T17:33:33.332Z,14.32
2023-05-14T17:36:00.471Z,14.04
2023-05-14T17:38:27.079Z,13.91
2023-05-14T17:40:53.822Z,13.82
2023-05-14T17:43:20.842Z,14.12
2023-05-14T17:48:20.358Z,13.92
2023-05-14T17:50:47.290Z,14.62
2023-05-14T17:53:14.083Z,14.57
2023-05-14T17:55:43.771Z,14.81
2023-05-14T17:58:11.707Z,15.02
2023-05-14T18:00:38.558Z,14.87
2023-05-14T18:03:05.623Z,13.99
2023-05-14T18:05:32.693Z,13.98
2023-05-14T18:08:00.075Z,13.79
2023-05-14T18:10:27.094Z,14.90
2023-05-14T18:12:53.698Z,14.54
2023-05-14T18:15:20.541Z,14.16
2023-05-14T18:17:47.380Z,14.44
2023-05-14T18:20:14.053Z,14.21
2023-05-14T18:22:40.968Z,14.19
2023-05-14T18:25:08.495Z,13.63
2023-05-14T18:27:35.463Z,14.23
2023-05-14T18:30:02.768Z,14.75
2023-05-14T18:32:29.522Z,13.93
2023-05-14T18:34:56.384Z,14.54
2023-05-14T18:37:23.049Z,15.10
2023-05-14T18:39:49.700Z,15.15
2023-05-14T18:42:17.016Z,15.25
2023-05-14T18:44:44.816Z,15.49
2023-05-14T18:47:11.561Z,14.79
2023-05-14T18:49:42.526Z,14.64
2023-05-14T18:52:09.301Z,15.36
2023-05-14T18:54:35.954Z,15.21
2023-05-14T18:57:02.558Z,15.57
2023-05-14T18:59:29.238Z,15.48
2023-05-14T19:01:55.962Z,15.65
2023-05-14T19:04:22.985Z,15.85
2023-05-14T19:06:50.188Z,16.02
2023-05-14T19:09:21.338Z,16.08
2023-05-14T19:11:48.498Z,16.15
2023-05-14T19:14:15.150Z,16.27
2023-05-14T19:16:41.950Z,16.39
2023-05-14T19:19:08.870Z,16.45
2023-05-14T19:21:35.870Z,16.37
2023-05-14T19:24:02.580Z,16.11
2023-05-14T19:26:29.335Z,15.83
2023-05-14T19:28:58.710Z,16.14
2023-05-14T19:31:26.024Z,16.23
2023-05-14T19:33:55.490Z,16.23
2023-05-14T19:36:22.314Z,16.16
2023-05-14T19:38:49.007Z,16.29
2023-05-14T19:41:15.744Z,16.34
2023-05-14T19:43:42.539Z,16.27
2023-05-14T19:46:09.301Z,16.43
2023-05-14T19:48:36.105Z,16.39
2023-05-14T19:51:03.489Z,16.44
2023-05-14T19:53:30.370Z,16.15
2023-05-14T19:55:57.420Z,16.38
2023-05-14T19:58:24.594Z,16.43
2023-05-14T20:00:53.480Z,16.47
2023-05-14T20:03:23.701Z,16.49
2023-05-14T20:05:50.424Z,16.52
2023-05-14T20:08:19.153Z,16.50
2023-05-14T20:10:45.864Z,16.36
2023-05-14T20:13:12.688Z,16.50
2023-05-14T20:15:39.743Z,16.57
2023-05-14T20:18:06.568Z,16.28
2023-05-14T20:20:34.070Z,16.42
2023-05-14T20:23:00.873Z,16.50
2023-05-14T20:25:28.733Z,16.52
2023-05-14T20:27:55.596Z,16.54
2023-05-14T20:30:22.440Z,16.60
2023-05-14T20:32:49.423Z,16.49
2023-05-14T20:35:16.209Z,16.26
2023-05-14T20:37:42.936Z,16.32
2023-05-14T20:40:12.897Z,16.38
2023-05-14T20:42:39.646Z,15.94
2023-05-14T20:45:07.155Z,15.73
2023-05-14T20:47:34.441Z,16.12
2023-05-14T20:50:01.591Z,15.39
2023-05-14T20:52:28.266Z,15.49
2023-05-14T20:54:54.970Z,15.69
2023-05-14T20:57:21.798Z,15.72
2023-05-14T20:59:49.176Z,15.75
2023-05-14T21:02:16.009Z,16.03
2023-05-14T21:04:42.899Z,16.25
2023-05-14T21:07:09.698Z,16.29
2023-05-14T21:09:37.374Z,16.44
2023-05-14T21:12:04.246Z,16.38
2023-05-14T21:14:30.965Z,16.30
2023-05-14T21:16:57.595Z,16.30
2023-05-14T21:19:24.375Z,16.20
2023-05-14T21:21:51.052Z,16.23
2023-05-14T21:24:17.817Z,16.03
2023-05-14T21:26:44.624Z,15.91
2023-05-14T21:29:11.533Z,16.18
2023-05-14T21:31:38.464Z,15.64
2023-05-14T21:34:05.183Z,14.98
2023-05-14T21:36:32.015Z,15.76
2023-05-14T21:38:58.629Z,15.86
2023-05-14T21:41:25.300Z,15.97
2023-05-14T21:43:51.939Z,16.08
2023-05-14T21:46:18.623Z,15.92
2023-05-14T21:48:45.370Z,15.91
2023-05-14T21:51:12.099Z,16.01
2023-05-14T21:53:38.811Z,16.22
2023-05-14T21:56:06.206Z,16.28
2023-05-14T21:58:32.987Z,16.37
2023-05-14T22:00:59.679Z,16.46
2023-05-14T22:03:26.533Z,16.43
2023-05-14T22:05:53.344Z,16.42
2023-05-14T22:08:20.034Z,16.39
2023-05-14T22:10:47.144Z,16.33
2023-05-14T22:13:13.861Z,16.44
2023-05-14T22:15:41.011Z,16.47
2023-05-14T22:18:07.989Z,16.52
2023-05-14T22:20:34.701Z,16.63
2023-05-14T22:23:01.418Z,16.67
2023-05-14T22:25:28.148Z,16.64
2023-05-14T22:27:54.821Z,16.64
2023-05-14T22:30:21.565Z,16.74
2023-05-14T22:32:48.320Z,16.13
2023-05-14T22:35:15.018Z,15.89
2023-05-14T22:37:41.922Z,16.07
2023-05-14T22:40:09.319Z,16.31
2023-05-14T22:42:36.116Z,16.27
2023-05-14T22:45:02.857Z,16.40
2023-05-14T22:47:29.692Z,16.49
2023-05-14T22:49:56.340Z,16.45
2023-05-14T22:52:22.946Z,16.45
2023-05-14T22:54:53.367Z,16.39
2023-05-14T22:57:20.066Z,16.51
2023-05-14T22:59:46.731Z,16.41
2023-05-14T23:02:13.467Z,16.54
2023-05-14T23:04:40.224Z,16.39
2023-05-14T23:07:07.160Z,16.47
2023-05-14T23:09:33.824Z,16.53
2023-05-14T23:12:00.491Z,16.55
2023-05-14T23:14:27.185Z,16.42
2023-05-14T23:16:53.833Z,16.44
2023-05-14T23:19:21.349Z,16.53
2023-05-14T23:21:47.995Z,16.46
2023-05-14T23:24:14.757Z,16.53
2023-05-14T23:26:41.382Z,16.55
2023-05-14T23:29:08.142Z,16.49
2023-05-14T23:31:35.480Z,16.52
2023-05-14T23:34:02.258Z,16.44
2023-05-14T23:36:31.631Z,16.52
2023-05-14T23:38:58.893Z,16.58
2023-05-14T23:41:26.211Z,16.55
2023-05-14T23:43:55.264Z,16.62
2023-05-14T23:46:22.420Z,16.69
2023-05-14T23:48:49.215Z,16.53
2023-05-14T23:51:15.964Z,16.52
2023-05-14T23:53:42.550Z,16.48
2023-05-14T23:56:09.717Z,16.43
2023-05-14T23:58:36.371Z,16.35
